sensor_id;sensor_type;location;lat;lon;timestamp;noise_LAeq;noise_LA_min;noise_LA_max;noise_LA01;noise_LA95
37163;Laerm;23057;48.554;14.454;2024-02-26T00:01:48;37.05;31.68;40.03;;
37163;Laerm;23057;48.554;14.454;2024-02-26T00:04:19;37.05;32.93;39.81;;
37163;Laerm;23057;48.554;14.454;2024-02-26T00:06:49;37.06;32.00;39.92;;
37163;Laerm;23057;48.554;14.454;2024-02-26T00:09:22;37.03;32.35;40.23;;
37163;Laerm;23057;48.554;14.454;2024-02-26T00:11:53;36.99;32.35;39.92;;
37163;Laerm;23057;48.554;14.454;2024-02-26T00:14:26;36.98;32.35;39.81;;
37163;Laerm;23057;48.554;14.454;2024-02-26T00:16:57;37.00;31.68;39.92;;
37163;Laerm;23057;48.554;14.454;2024-02-26T00:19:27;37.01;32.93;39.70;;
37163;Laerm;23057;48.554;14.454;2024-02-26T00:21:58;37.05;32.35;39.81;;
37163;Laerm;23057;48.554;14.454;2024-02-26T00:24:29;37.00;31.68;39.81;;
37163;Laerm;23057;48.554;14.454;2024-02-26T00:27:00;37.03;32.35;39.70;;
37163;Laerm;23057;48.554;14.454;2024-02-26T00:29:31;37.01;32.35;39.92;;
37163;Laerm;23057;48.554;14.454;2024-02-26T00:32:03;37.05;30.89;40.13;;
37163;Laerm;23057;48.554;14.454;2024-02-26T00:34:35;37.03;32.93;39.78;;
37163;Laerm;23057;48.554;14.454;2024-02-26T00:37:05;37.04;32.35;40.18;;
37163;Laerm;23057;48.554;14.454;2024-02-26T00:39:36;37.07;31.68;39.81;;
37163;Laerm;23057;48.554;14.454;2024-02-26T00:42:07;37.04;31.68;39.92;;
37163;Laerm;23057;48.554;14.454;2024-02-26T00:44:38;37.03;32.35;39.81;;
37163;Laerm;23057;48.554;14.454;2024-02-26T00:47:09;37.02;32.93;39.70;;
37163;Laerm;23057;48.554;14.454;2024-02-26T00:49:40;37.02;31.68;39.92;;
37163;Laerm;23057;48.554;14.454;2024-02-26T00:52:11;37.00;31.68;40.62;;
37163;Laerm;23057;48.554;14.454;2024-02-26T00:54:42;37.00;32.35;39.70;;
37163;Laerm;23057;48.554;14.454;2024-02-26T00:57:13;37.00;30.89;40.03;;
37163;Laerm;23057;48.554;14.454;2024-02-26T00:59:43;37.02;32.35;40.03;;
37163;Laerm;23057;48.554;14.454;2024-02-26T01:02:14;37.02;30.89;40.03;;
37163;Laerm;23057;48.554;14.454;2024-02-26T01:04:45;37.01;31.33;39.46;;
37163;Laerm;23057;48.554;14.454;2024-02-26T01:07:16;37.00;30.89;39.58;;
37163;Laerm;23057;48.554;14.454;2024-02-26T01:09:47;37.02;30.89;39.92;;
37163;Laerm;23057;48.554;14.454;2024-02-26T01:12:18;37.01;32.35;39.58;;
37163;Laerm;23057;48.554;14.454;2024-02-26T01:14:49;37.02;32.93;39.81;;
37163;Laerm;23057;48.554;14.454;2024-02-26T01:17:19;37.03;31.68;39.46;;
37163;Laerm;23057;48.554;14.454;2024-02-26T01:19:50;36.99;31.68;39.92;;
37163;Laerm;23057;48.554;14.454;2024-02-26T01:22:21;37.00;32.35;39.81;;
37163;Laerm;23057;48.554;14.454;2024-02-26T01:24:52;36.99;32.93;40.03;;
37163;Laerm;23057;48.554;14.454;2024-02-26T01:27:23;36.98;32.35;39.81;;
37163;Laerm;23057;48.554;14.454;2024-02-26T01:29:57;36.93;30.89;39.46;;
37163;Laerm;23057;48.554;14.454;2024-02-26T01:32:28;36.95;31.68;39.70;;
37163;Laerm;23057;48.554;14.454;2024-02-26T01:34:59;36.89;31.68;39.70;;
37163;Laerm;23057;48.554;14.454;2024-02-26T01:37:29;36.91;32.35;40.13;;
37163;Laerm;23057;48.554;14.454;2024-02-26T01:40:00;36.92;32.00;40.13;;
37163;Laerm;23057;48.554;14.454;2024-02-26T01:42:34;36.96;32.35;39.70;;
37163;Laerm;23057;48.554;14.454;2024-02-26T01:45:13;36.94;31.68;39.81;;
37163;Laerm;23057;48.554;14.454;2024-02-26T01:47:48;37.00;30.89;40.03;;
37163;Laerm;23057;48.554;14.454;2024-02-26T01:50:20;36.97;31.68;39.81;;
37163;Laerm;23057;48.554;14.454;2024-02-26T01:52:55;36.98;32.93;39.81;;
37163;Laerm;23057;48.554;14.454;2024-02-26T01:55:27;36.97;31.68;39.92;;
37163;Laerm;23057;48.554;14.454;2024-02-26T01:57:59;37.00;32.93;39.70;;
37163;Laerm;23057;48.554;14.454;2024-02-26T02:00:31;36.97;32.35;39.81;;
37163;Laerm;23057;48.554;14.454;2024-02-26T02:03:04;36.97;32.93;39.70;;
37163;Laerm;23057;48.554;14.454;2024-02-26T02:05:36;36.98;31.68;40.03;;
37163;Laerm;23057;48.554;14.454;2024-02-26T02:08:13;36.98;32.93;39.70;;
37163;Laerm;23057;48.554;14.454;2024-02-26T02:10:45;37.02;32.93;39.70;;
37163;Laerm;23057;48.554;14.454;2024-02-26T02:13:18;37.00;32.35;39.70;;
37163;Laerm;23057;48.554;14.454;2024-02-26T02:15:49;37.00;32.00;39.81;;
37163;Laerm;23057;48.554;14.454;2024-02-26T02:18:20;36.98;31.68;39.58;;
37163;Laerm;23057;48.554;14.454;2024-02-26T02:20:50;36.97;32.35;39.81;;
37163;Laerm;23057;48.554;14.454;2024-02-26T02:23:22;36.99;31.68;39.81;;
37163;Laerm;23057;48.554;14.454;2024-02-26T02:25:54;36.94;30.89;39.70;;
37163;Laerm;23057;48.554;14.454;2024-02-26T02:28:27;36.94;31.68;39.89;;
37163;Laerm;23057;48.554;14.454;2024-02-26T02:30:59;36.91;31.68;39.81;;
37163;Laerm;23057;48.554;14.454;2024-02-26T02:33:32;36.89;31.68;44.07;;
37163;Laerm;23057;48.554;14.454;2024-02-26T02:36:04;36.89;32.35;39.58;;
37163;Laerm;23057;48.554;14.454;2024-02-26T02:38:50;36.90;32.35;39.70;;
37163;Laerm;23057;48.554;14.454;2024-02-26T02:41:21;36.90;32.35;39.92;;
37163;Laerm;23057;48.554;14.454;2024-02-26T02:43:52;36.89;32.35;39.46;;
37163;Laerm;23057;48.554;14.454;2024-02-26T02:46:23;36.89;31.68;39.70;;
37163;Laerm;23057;48.554;14.454;2024-02-26T02:48:54;36.92;32.35;40.03;;
37163;Laerm;23057;48.554;14.454;2024-02-26T02:51:25;36.89;29.92;39.81;;
37163;Laerm;23057;48.554;14.454;2024-02-26T02:53:56;36.91;32.35;39.58;;
37163;Laerm;23057;48.554;14.454;2024-02-26T02:56:27;36.91;31.68;39.70;;
37163;Laerm;23057;48.554;14.454;2024-02-26T02:58:57;36.93;32.35;39.58;;
37163;Laerm;23057;48.554;14.454;2024-02-26T03:01:28;36.95;30.89;40.13;;
37163;Laerm;23057;48.554;14.454;2024-02-26T03:03:59;36.93;32.35;39.92;;
37163;Laerm;23057;48.554;14.454;2024-02-26T03:06:30;36.95;31.68;39.58;;
37163;Laerm;23057;48.554;14.454;2024-02-26T03:09:01;36.95;32.58;40.33;;
37163;Laerm;23057;48.554;14.454;2024-02-26T03:11:31;36.98;32.93;40.03;;
37163;Laerm;23057;48.554;14.454;2024-02-26T03:14:02;36.99;32.35;39.68;;
37163;Laerm;23057;48.554;14.454;2024-02-26T03:16:33;37.02;32.93;39.70;;
37163;Laerm;23057;48.554;14.454;2024-02-26T03:19:04;37.00;31.68;39.81;;
37163;Laerm;23057;48.554;14.454;2024-02-26T03:21:35;36.98;32.35;39.99;;
37163;Laerm;23057;48.554;14.454;2024-02-26T03:24:06;37.00;32.35;39.70;;
37163;Laerm;23057;48.554;14.454;2024-02-26T03:26:39;36.99;32.35;39.92;;
37163;Laerm;23057;48.554;14.454;2024-02-26T03:29:10;36.99;32.93;39.92;;
37163;Laerm;23057;48.554;14.454;2024-02-26T03:31:41;36.97;32.93;39.92;;
37163;Laerm;23057;48.554;14.454;2024-02-26T03:34:12;36.99;32.93;39.81;;
37163;Laerm;23057;48.554;14.454;2024-02-26T03:36:44;37.00;31.68;39.92;;
37163;Laerm;23057;48.554;14.454;2024-02-26T03:39:15;37.01;31.68;39.92;;
37163;Laerm;23057;48.554;14.454;2024-02-26T03:41:46;37.01;32.35;39.81;;
37163;Laerm;23057;48.554;14.454;2024-02-26T03:44:16;37.02;32.35;40.13;;
37163;Laerm;23057;48.554;14.454;2024-02-26T03:46:47;37.02;30.89;39.99;;
37163;Laerm;23057;48.554;14.454;2024-02-26T03:49:18;36.98;32.35;39.81;;
37163;Laerm;23057;48.554;14.454;2024-02-26T03:51:50;37.01;31.68;39.81;;
37163;Laerm;23057;48.554;14.454;2024-02-26T03:54:21;36.98;32.35;39.58;;
37163;Laerm;23057;48.554;14.454;2024-02-26T03:56:52;36.98;32.93;40.13;;
37163;Laerm;23057;48.554;14.454;2024-02-26T03:59:23;36.98;31.68;39.81;;
37163;Laerm;23057;48.554;14.454;2024-02-26T04:01:55;36.96;31.68;39.92;;
37163;Laerm;23057;48.554;14.454;2024-02-26T04:04:26;36.95;32.93;39.70;;
37163;Laerm;23057;48.554;14.454;2024-02-26T04:06:57;36.97;32.35;39.70;;
37163;Laerm;23057;48.554;14.454;2024-02-26T04:09:27;36.96;32.58;39.81;;
37163;Laerm;23057;48.554;14.454;2024-02-26T04:11:58;36.94;32.93;39.92;;
37163;Laerm;23057;48.554;14.454;2024-02-26T04:14:29;36.93;30.89;39.81;;
37163;Laerm;23057;48.554;14.454;2024-02-26T04:17:00;36.94;32.35;39.58;;
37163;Laerm;23057;48.554;14.454;2024-02-26T04:19:31;36.96;32.93;39.81;;
37163;Laerm;23057;48.554;14.454;2024-02-26T04:22:02;36.98;32.93;39.81;;
37163;Laerm;23057;48.554;14.454;2024-02-26T04:24:33;36.97;32.93;39.70;;
37163;Laerm;23057;48.554;14.454;2024-02-26T04:27:04;36.99;32.93;39.81;;
37163;Laerm;23057;48.554;14.454;2024-02-26T04:29:35;36.95;32.93;39.92;;
37163;Laerm;23057;48.554;14.454;2024-02-26T04:32:06;36.94;30.89;39.81;;
37163;Laerm;23057;48.554;14.454;2024-02-26T04:34:37;36.93;30.89;39.58;;
37163;Laerm;23057;48.554;14.454;2024-02-26T04:37:08;36.94;32.35;39.70;;
37163;Laerm;23057;48.554;14.454;2024-02-26T04:39:38;36.93;31.68;39.58;;
37163;Laerm;23057;48.554;14.454;2024-02-26T04:42:09;36.92;32.35;39.81;;
37163;Laerm;23057;48.554;14.454;2024-02-26T04:44:40;36.93;31.68;39.81;;
37163;Laerm;23057;48.554;14.454;2024-02-26T04:47:11;36.91;32.00;40.03;;
37163;Laerm;23057;48.554;14.454;2024-02-26T04:49:42;36.93;30.89;39.58;;
37163;Laerm;23057;48.554;14.454;2024-02-26T04:52:13;36.91;32.35;39.46;;
37163;Laerm;23057;48.554;14.454;2024-02-26T04:54:43;36.91;31.68;39.58;;
37163;Laerm;23057;48.554;14.454;2024-02-26T04:57:14;36.93;31.68;39.70;;
37163;Laerm;23057;48.554;14.454;2024-02-26T04:59:45;36.92;32.35;40.53;;
37163;Laerm;23057;48.554;14.454;2024-02-26T05:02:16;36.90;29.92;39.70;;
37163;Laerm;23057;48.554;14.454;2024-02-26T05:04:47;36.93;31.68;39.58;;
37163;Laerm;23057;48.554;14.454;2024-02-26T05:07:18;36.91;30.89;39.70;;
37163;Laerm;23057;48.554;14.454;2024-02-26T05:09:49;36.85;31.68;39.70;;
37163;Laerm;23057;48.554;14.454;2024-02-26T05:12:22;36.88;30.89;39.70;;
37163;Laerm;23057;48.554;14.454;2024-02-26T05:14:53;36.89;32.35;39.92;;
37163;Laerm;23057;48.554;14.454;2024-02-26T05:17:24;36.89;31.68;39.81;;
37163;Laerm;23057;48.554;14.454;2024-02-26T05:19:55;36.90;31.68;39.92;;
37163;Laerm;23057;48.554;14.454;2024-02-26T05:22:26;36.93;31.68;39.46;;
37163;Laerm;23057;48.554;14.454;2024-02-26T05:24:56;36.90;28.67;39.78;;
37163;Laerm;23057;48.554;14.454;2024-02-26T05:27:27;36.90;31.68;39.46;;
37163;Laerm;23057;48.554;14.454;2024-02-26T05:29:58;36.89;32.58;39.70;;
37163;Laerm;23057;48.554;14.454;2024-02-26T05:32:29;36.91;30.89;39.92;;
37163;Laerm;23057;48.554;14.454;2024-02-26T05:35:01;36.89;30.89;40.03;;
37163;Laerm;23057;48.554;14.454;2024-02-26T05:37:33;36.90;32.35;39.70;;
37163;Laerm;23057;48.554;14.454;2024-02-26T05:40:06;36.92;32.35;39.70;;
37163;Laerm;23057;48.554;14.454;2024-02-26T05:42:37;36.90;32.35;39.81;;
37163;Laerm;23057;48.554;14.454;2024-02-26T05:45:08;36.91;32.35;39.58;;
37163;Laerm;23057;48.554;14.454;2024-02-26T05:47:39;36.91;30.89;39.58;;
37163;Laerm;23057;48.554;14.454;2024-02-26T05:50:13;36.86;31.68;39.58;;
37163;Laerm;23057;48.554;14.454;2024-02-26T05:52:46;36.90;32.35;39.58;;
37163;Laerm;23057;48.554;14.454;2024-02-26T05:55:16;36.90;30.89;39.58;;
37163;Laerm;23057;48.554;14.454;2024-02-26T05:57:47;36.89;32.93;39.81;;
37163;Laerm;23057;48.554;14.454;2024-02-26T06:00:20;36.89;31.68;40.03;;
37163;Laerm;23057;48.554;14.454;2024-02-26T06:02:51;36.86;30.89;43.49;;
37163;Laerm;23057;48.554;14.454;2024-02-26T06:05:22;36.87;31.68;40.36;;
37163;Laerm;23057;48.554;14.454;2024-02-26T06:07:53;36.85;31.68;39.70;;
37163;Laerm;23057;48.554;14.454;2024-02-26T06:10:24;36.83;30.54;42.93;;
37163;Laerm;23057;48.554;14.454;2024-02-26T06:12:55;36.73;29.92;49.72;;
37163;Laerm;23057;48.554;14.454;2024-02-26T06:15:25;36.56;28.67;39.46;;
37163;Laerm;23057;48.554;14.454;2024-02-26T06:17:56;36.51;30.89;48.90;;
37163;Laerm;23057;48.554;14.454;2024-02-26T06:20:27;36.43;28.67;39.81;;
37163;Laerm;23057;48.554;14.454;2024-02-26T06:22:58;36.51;26.91;39.92;;
37163;Laerm;23057;48.554;14.454;2024-02-26T06:25:29;36.58;29.92;39.34;;
37163;Laerm;23057;48.554;14.454;2024-02-26T06:28:00;36.52;29.92;39.81;;
37163;Laerm;23057;48.554;14.454;2024-02-26T06:30:31;36.56;30.89;39.99;;
37163;Laerm;23057;48.554;14.454;2024-02-26T06:33:01;36.63;28.67;45.60;;
37163;Laerm;23057;48.554;14.454;2024-02-26T06:35:33;36.57;30.89;42.00;;
37163;Laerm;23057;48.554;14.454;2024-02-26T06:38:04;36.68;30.89;39.70;;
37163;Laerm;23057;48.554;14.454;2024-02-26T06:40:35;37.31;31.68;39.92;;
37163;Laerm;23057;48.554;14.454;2024-02-26T06:43:06;37.62;33.90;40.03;;
37163;Laerm;23057;48.554;14.454;2024-02-26T06:45:37;37.78;33.44;40.13;;
37163;Laerm;23057;48.554;14.454;2024-02-26T06:48:07;37.87;34.69;40.71;;
37163;Laerm;23057;48.554;14.454;2024-02-26T06:50:38;38.04;34.31;40.33;;
37163;Laerm;23057;48.554;14.454;2024-02-26T06:53:09;38.14;34.69;40.98;;
37163;Laerm;23057;48.554;14.454;2024-02-26T06:55:40;38.24;34.69;41.06;;
37163;Laerm;23057;48.554;14.454;2024-02-26T06:58:11;38.43;35.04;40.80;;
37163;Laerm;23057;48.554;14.454;2024-02-26T07:00:42;38.44;35.04;40.88;;
37163;Laerm;23057;48.554;14.454;2024-02-26T07:03:12;38.40;34.31;40.98;;
37163;Laerm;23057;48.554;14.454;2024-02-26T07:05:44;38.38;35.04;40.98;;
37163;Laerm;23057;48.554;14.454;2024-02-26T07:08:16;38.38;34.69;40.80;;
37163;Laerm;23057;48.554;14.454;2024-02-26T07:10:47;38.38;34.69;40.98;;
37163;Laerm;23057;48.554;14.454;2024-02-26T07:13:18;38.35;34.34;40.62;;
37163;Laerm;23057;48.554;14.454;2024-02-26T07:15:49;38.38;34.69;40.89;;
37163;Laerm;23057;48.554;14.454;2024-02-26T07:18:20;38.29;33.90;41.06;;
37163;Laerm;23057;48.554;14.454;2024-02-26T07:20:51;38.37;35.04;41.06;;
37163;Laerm;23057;48.554;14.454;2024-02-26T07:23:22;38.35;34.69;40.71;;
37163;Laerm;23057;48.554;14.454;2024-02-26T07:25:52;38.37;34.69;41.22;;
37163;Laerm;23057;48.554;14.454;2024-02-26T07:28:24;38.35;34.31;41.06;;
37163;Laerm;23057;48.554;14.454;2024-02-26T07:30:56;38.34;34.31;41.22;;
37163;Laerm;23057;48.554;14.454;2024-02-26T07:33:26;38.35;34.69;40.62;;
37163;Laerm;23057;48.554;14.454;2024-02-26T07:35:57;38.38;35.04;40.89;;
37163;Laerm;23057;48.554;14.454;2024-02-26T07:38:29;38.33;34.31;40.80;;
37163;Laerm;23057;48.554;14.454;2024-02-26T07:41:03;38.33;34.69;40.80;;
37163;Laerm;23057;48.554;14.454;2024-02-26T07:43:34;38.38;34.69;40.62;;
37163;Laerm;23057;48.554;14.454;2024-02-26T07:46:05;38.33;35.01;40.71;;
37163;Laerm;23057;48.554;14.454;2024-02-26T07:48:35;38.33;33.90;40.71;;
37163;Laerm;23057;48.554;14.454;2024-02-26T07:51:06;38.33;34.31;40.80;;
37163;Laerm;23057;48.554;14.454;2024-02-26T07:53:37;38.34;35.31;40.71;;
37163;Laerm;23057;48.554;14.454;2024-02-26T07:56:09;38.31;34.31;40.80;;
37163;Laerm;23057;48.554;14.454;2024-02-26T07:58:40;38.31;35.01;41.06;;
37163;Laerm;23057;48.554;14.454;2024-02-26T08:01:13;38.27;34.69;41.14;;
37163;Laerm;23057;48.554;14.454;2024-02-26T08:03:45;38.29;34.69;40.62;;
37163;Laerm;23057;48.554;14.454;2024-02-26T08:06:17;38.32;34.69;41.06;;
37163;Laerm;23057;48.554;14.454;2024-02-26T08:08:47;38.28;34.69;40.62;;
37163;Laerm;23057;48.554;14.454;2024-02-26T08:11:18;38.26;34.69;40.62;;
37163;Laerm;23057;48.554;14.454;2024-02-26T08:13:49;38.16;34.31;40.71;;
37163;Laerm;23057;48.554;14.454;2024-02-26T08:16:20;38.00;34.69;40.98;;
37163;Laerm;23057;48.554;14.454;2024-02-26T08:18:51;37.99;33.90;40.53;;
37163;Laerm;23057;48.554;14.454;2024-02-26T08:21:22;38.04;34.31;40.53;;
37163;Laerm;23057;48.554;14.454;2024-02-26T08:23:53;38.06;34.31;40.98;;
37163;Laerm;23057;48.554;14.454;2024-02-26T08:26:23;38.12;33.90;40.80;;
37163;Laerm;23057;48.554;14.454;2024-02-26T08:28:54;38.13;34.69;40.62;;
37163;Laerm;23057;48.554;14.454;2024-02-26T08:31:26;38.15;34.31;40.80;;
37163;Laerm;23057;48.554;14.454;2024-02-26T08:33:58;38.14;34.69;40.53;;
37163;Laerm;23057;48.554;14.454;2024-02-26T08:36:33;38.16;34.31;40.62;;
37163;Laerm;23057;48.554;14.454;2024-02-26T08:39:04;38.17;34.69;40.89;;
37163;Laerm;23057;48.554;14.454;2024-02-26T08:41:36;38.21;34.31;40.62;;
37163;Laerm;23057;48.554;14.454;2024-02-26T08:44:07;38.17;34.69;40.43;;
37163;Laerm;23057;48.554;14.454;2024-02-26T08:46:37;38.18;33.90;40.89;;
37163;Laerm;23057;48.554;14.454;2024-02-26T08:49:09;38.18;35.04;40.62;;
37163;Laerm;23057;48.554;14.454;2024-02-26T08:51:43;38.20;34.69;40.80;;
37163;Laerm;23057;48.554;14.454;2024-02-26T08:54:14;38.19;35.04;40.62;;
37163;Laerm;23057;48.554;14.454;2024-02-26T08:56:45;38.18;34.69;40.80;;
37163;Laerm;23057;48.554;14.454;2024-02-26T08:59:16;38.20;35.01;40.43;;
37163;Laerm;23057;48.554;14.454;2024-02-26T09:01:50;38.17;32.93;40.71;;
37163;Laerm;23057;48.554;14.454;2024-02-26T09:04:21;38.18;34.31;40.62;;
37163;Laerm;23057;48.554;14.454;2024-02-26T09:06:52;38.19;33.90;40.62;;
37163;Laerm;23057;48.554;14.454;2024-02-26T09:09:22;38.17;34.69;40.71;;
37163;Laerm;23057;48.554;14.454;2024-02-26T09:11:55;38.20;33.44;40.71;;
37163;Laerm;23057;48.554;14.454;2024-02-26T09:14:26;38.19;35.04;40.79;;
37163;Laerm;23057;48.554;14.454;2024-02-26T09:16:57;38.18;34.69;40.98;;
37163;Laerm;23057;48.554;14.454;2024-02-26T09:19:28;38.20;34.31;40.53;;
37163;Laerm;23057;48.554;14.454;2024-02-26T09:21:59;38.18;35.04;40.80;;
37163;Laerm;23057;48.554;14.454;2024-02-26T09:24:30;38.20;34.31;41.06;;
37163;Laerm;23057;48.554;14.454;2024-02-26T09:27:00;38.21;35.04;40.71;;
37163;Laerm;23057;48.554;14.454;2024-02-26T09:29:31;38.22;34.69;40.71;;
37163;Laerm;23057;48.554;14.454;2024-02-26T09:32:03;38.20;34.69;40.62;;
37163;Laerm;23057;48.554;14.454;2024-02-26T09:34:34;38.13;34.69;40.53;;
37163;Laerm;23057;48.554;14.454;2024-02-26T09:37:05;38.16;34.31;40.80;;
37163;Laerm;23057;48.554;14.454;2024-02-26T09:39:35;38.13;33.90;40.53;;
37163;Laerm;23057;48.554;14.454;2024-02-26T09:42:11;38.15;34.31;40.62;;
37163;Laerm;23057;48.554;14.454;2024-02-26T09:44:44;38.16;34.31;40.80;;
37163;Laerm;23057;48.554;14.454;2024-02-26T09:47:15;38.17;34.31;40.43;;
37163;Laerm;23057;48.554;14.454;2024-02-26T09:49:50;38.18;34.69;40.53;;
37163;Laerm;23057;48.554;14.454;2024-02-26T09:52:25;38.16;35.01;40.80;;
37163;Laerm;23057;48.554;14.454;2024-02-26T09:54:57;38.19;34.69;41.06;;
37163;Laerm;23057;48.554;14.454;2024-02-26T09:57:29;38.13;34.31;40.80;;
37163;Laerm;23057;48.554;14.454;2024-02-26T10:00:03;38.14;34.69;40.45;;
37163;Laerm;23057;48.554;14.454;2024-02-26T10:02:38;38.15;35.04;40.53;;
37163;Laerm;23057;48.554;14.454;2024-02-26T10:05:16;38.15;34.31;40.89;;
37163;Laerm;23057;48.554;14.454;2024-02-26T10:07:49;38.16;35.04;40.33;;
37163;Laerm;23057;48.554;14.454;2024-02-26T10:10:22;38.14;34.31;40.80;;
37163;Laerm;23057;48.554;14.454;2024-02-26T10:12:53;38.17;34.31;40.62;;
37163;Laerm;23057;48.554;14.454;2024-02-26T10:15:24;38.17;34.69;40.62;;
37163;Laerm;23057;48.554;14.454;2024-02-26T10:17:54;38.19;33.90;40.71;;
37163;Laerm;23057;48.554;14.454;2024-02-26T10:20:25;38.19;34.69;40.98;;
37163;Laerm;23057;48.554;14.454;2024-02-26T10:22:58;38.16;35.04;40.62;;
37163;Laerm;23057;48.554;14.454;2024-02-26T10:25:32;38.13;33.90;40.89;;
37163;Laerm;23057;48.554;14.454;2024-02-26T10:28:04;38.14;34.69;40.71;;
37163;Laerm;23057;48.554;14.454;2024-02-26T10:30:37;38.10;34.69;40.80;;
37163;Laerm;23057;48.554;14.454;2024-02-26T10:33:09;38.10;34.69;40.71;;
37163;Laerm;23057;48.554;14.454;2024-02-26T10:35:46;38.08;33.90;40.54;;
37163;Laerm;23057;48.554;14.454;2024-02-26T10:38:17;38.10;34.31;40.89;;
37163;Laerm;23057;48.554;14.454;2024-02-26T10:40:51;38.12;34.31;40.33;;
37163;Laerm;23057;48.554;14.454;2024-02-26T10:43:22;38.08;34.69;40.98;;
37163;Laerm;23057;48.554;14.454;2024-02-26T10:45:56;38.12;34.31;40.62;;
37163;Laerm;23057;48.554;14.454;2024-02-26T10:48:27;38.11;33.90;40.53;;
37163;Laerm;23057;48.554;14.454;2024-02-26T10:50:58;38.13;34.69;40.53;;
37163;Laerm;23057;48.554;14.454;2024-02-26T10:53:30;38.12;34.69;40.53;;
37163;Laerm;23057;48.554;14.454;2024-02-26T10:56:04;38.14;35.04;40.71;;
37163;Laerm;23057;48.554;14.454;2024-02-26T10:58:37;38.16;34.69;41.38;;
37163;Laerm;23057;48.554;14.454;2024-02-26T11:01:10;38.14;34.69;40.89;;
37163;Laerm;23057;48.554;14.454;2024-02-26T11:03:42;38.16;34.69;40.71;;
37163;Laerm;23057;48.554;14.454;2024-02-26T11:06:15;38.17;34.69;40.62;;
37163;Laerm;23057;48.554;14.454;2024-02-26T11:08:49;38.14;34.69;40.62;;
37163;Laerm;23057;48.554;14.454;2024-02-26T11:11:21;38.13;34.69;40.71;;
37163;Laerm;23057;48.554;14.454;2024-02-26T11:13:54;38.17;34.69;40.62;;
37163;Laerm;23057;48.554;14.454;2024-02-26T11:16:27;38.15;34.69;40.43;;
37163;Laerm;23057;48.554;14.454;2024-02-26T11:19:00;38.16;35.04;40.71;;
37163;Laerm;23057;48.554;14.454;2024-02-26T11:21:31;38.13;33.90;40.71;;
37163;Laerm;23057;48.554;14.454;2024-02-26T11:24:16;38.16;34.69;40.62;;
37163;Laerm;23057;48.554;14.454;2024-02-26T11:26:57;38.10;33.90;40.71;;
37163;Laerm;23057;48.554;14.454;2024-02-26T11:29:46;38.15;34.31;40.71;;
37163;Laerm;23057;48.554;14.454;2024-02-26T11:32:18;38.13;35.04;40.53;;
37163;Laerm;23057;48.554;14.454;2024-02-26T11:34:50;38.12;35.04;40.62;;
37163;Laerm;23057;48.554;14.454;2024-02-26T11:37:21;38.14;35.04;40.43;;
37163;Laerm;23057;48.554;14.454;2024-02-26T11:39:53;38.11;34.69;40.43;;
37163;Laerm;23057;48.554;14.454;2024-02-26T11:42:24;38.06;33.90;40.43;;
37163;Laerm;23057;48.554;14.454;2024-02-26T11:44:56;38.09;34.69;40.71;;
37163;Laerm;23057;48.554;14.454;2024-02-26T11:47:35;38.12;34.69;40.33;;
37163;Laerm;23057;48.554;14.454;2024-02-26T11:50:41;38.10;34.69;40.62;;
37163;Laerm;23057;48.554;14.454;2024-02-26T11:53:31;38.12;34.31;40.80;;
37163;Laerm;23057;48.554;14.454;2024-02-26T11:59:05;38.11;34.31;40.62;;
37163;Laerm;23057;48.554;14.454;2024-02-26T12:01:48;38.11;35.04;40.71;;
37163;Laerm;23057;48.554;14.454;2024-02-26T12:04:27;38.13;34.69;40.62;;
37163;Laerm;23057;48.554;14.454;2024-02-26T12:07:04;38.13;35.04;40.53;;
37163;Laerm;23057;48.554;14.454;2024-02-26T12:09:41;38.13;34.31;40.33;;
37163;Laerm;23057;48.554;14.454;2024-02-26T12:12:18;38.17;34.31;41.06;;
37163;Laerm;23057;48.554;14.454;2024-02-26T12:14:56;38.14;34.69;40.71;;
37163;Laerm;23057;48.554;14.454;2024-02-26T12:17:27;38.14;35.04;40.53;;
37163;Laerm;23057;48.554;14.454;2024-02-26T12:20:13;38.12;34.69;40.89;;
37163;Laerm;23057;48.554;14.454;2024-02-26T12:22:47;38.12;35.04;40.43;;
37163;Laerm;23057;48.554;14.454;2024-02-26T12:25:25;38.12;34.31;40.53;;
37163;Laerm;23057;48.554;14.454;2024-02-26T12:28:00;38.12;34.69;40.62;;
37163;Laerm;23057;48.554;14.454;2024-02-26T12:30:31;38.10;35.04;40.53;;
37163;Laerm;23057;48.554;14.454;2024-02-26T12:33:03;38.16;34.31;40.71;;
37163;Laerm;23057;48.554;14.454;2024-02-26T12:35:36;38.14;35.04;40.62;;
37163;Laerm;23057;48.554;14.454;2024-02-26T12:38:08;38.12;34.69;40.53;;
37163;Laerm;23057;48.554;14.454;2024-02-26T12:40:39;38.11;33.90;40.71;;
37163;Laerm;23057;48.554;14.454;2024-02-26T12:43:10;38.12;33.90;40.43;;
37163;Laerm;23057;48.554;14.454;2024-02-26T12:45:43;38.09;34.31;40.98;;
37163;Laerm;23057;48.554;14.454;2024-02-26T12:48:18;38.09;34.31;40.33;;
37163;Laerm;23057;48.554;14.454;2024-02-26T12:50:49;38.07;34.69;40.33;;
37163;Laerm;23057;48.554;14.454;2024-02-26T12:53:21;38.06;34.69;40.62;;
37163;Laerm;23057;48.554;14.454;2024-02-26T12:55:55;38.07;34.69;40.89;;
37163;Laerm;23057;48.554;14.454;2024-02-26T12:58:26;38.10;34.69;40.62;;
37163;Laerm;23057;48.554;14.454;2024-02-26T13:00:58;38.07;34.69;40.62;;
37163;Laerm;23057;48.554;14.454;2024-02-26T13:03:31;38.08;33.90;40.53;;
37163;Laerm;23057;48.554;14.454;2024-02-26T13:06:05;38.06;34.31;40.33;;
37163;Laerm;23057;48.554;14.454;2024-02-26T13:08:37;38.04;34.69;40.43;;
37163;Laerm;23057;48.554;14.454;2024-02-26T13:11:08;38.06;34.69;40.54;;
37163;Laerm;23057;48.554;14.454;2024-02-26T13:13:39;38.06;34.31;40.62;;
37163;Laerm;23057;48.554;14.454;2024-02-26T13:16:15;38.04;34.31;40.53;;
37163;Laerm;23057;48.554;14.454;2024-02-26T13:18:46;38.02;34.31;40.33;;
37163;Laerm;23057;48.554;14.454;2024-02-26T13:21:19;38.04;33.90;40.62;;
37163;Laerm;23057;48.554;14.454;2024-02-26T13:23:52;38.04;34.31;40.53;;
37163;Laerm;23057;48.554;14.454;2024-02-26T13:26:24;38.02;34.69;40.62;;
37163;Laerm;23057;48.554;14.454;2024-02-26T13:29:04;38.02;34.31;40.62;;
37163;Laerm;23057;48.554;14.454;2024-02-26T13:31:41;38.02;34.69;40.23;;
37163;Laerm;23057;48.554;14.454;2024-02-26T13:34:28;38.08;34.69;40.71;;
37163;Laerm;23057;48.554;14.454;2024-02-26T13:36:59;38.06;34.31;40.53;;
37163;Laerm;23057;48.554;14.454;2024-02-26T13:39:29;38.05;34.69;40.62;;
37163;Laerm;23057;48.554;14.454;2024-02-26T13:42:00;38.01;34.69;40.36;;
37163;Laerm;23057;48.554;14.454;2024-02-26T13:44:31;38.02;34.69;40.43;;
37163;Laerm;23057;48.554;14.454;2024-02-26T13:47:04;38.00;34.69;40.43;;
37163;Laerm;23057;48.554;14.454;2024-02-26T13:49:35;37.98;34.69;40.43;;
37163;Laerm;23057;48.554;14.454;2024-02-26T13:52:06;37.96;35.04;40.23;;
37163;Laerm;23057;48.554;14.454;2024-02-26T13:54:37;37.97;33.90;40.43;;
37163;Laerm;23057;48.554;14.454;2024-02-26T13:57:09;37.97;34.69;40.33;;
37163;Laerm;23057;48.554;14.454;2024-02-26T13:59:40;37.99;34.69;40.80;;
37163;Laerm;23057;48.554;14.454;2024-02-26T14:02:13;37.98;34.69;40.33;;